createdAt,value
2023-11-29T00:04:25.015Z,10.70
2023-11-29T00:09:24.736Z,9.80
2023-11-29T00:14:23.705Z,8.90
2023-11-29T00:19:23.379Z,6.50
2023-11-29T00:24:22.719Z,9.10
2023-11-29T00:29:26.070Z,6.70
2023-11-29T00:34:26.040Z,7.10
2023-11-29T00:39:25.317Z,4.00
2023-11-29T00:44:24.765Z,4.00
2023-11-29T00:49:24.838Z,7.30
2023-11-29T00:54:24.627Z,5.40
2023-11-29T00:59:24.732Z,6.20
2023-11-29T01:04:24.146Z,6.60
2023-11-29T01:09:23.031Z,5.10
2023-11-29T01:14:22.523Z,4.60
2023-11-29T01:19:24.721Z,6.00
2023-11-29T01:24:24.717Z,6.30
2023-11-29T01:29:25.550Z,7.30
2023-11-29T01:34:24.736Z,5.40
2023-11-29T01:39:24.838Z,8.00
2023-11-29T01:44:24.551Z,4.40
2023-11-29T01:49:24.662Z,6.30
2023-11-29T01:54:24.037Z,5.30
2023-11-29T01:59:22.948Z,8.30
2023-11-29T02:04:22.064Z,4.60
2023-11-29T02:09:21.721Z,5.60
2023-11-29T02:14:21.117Z,4.40
2023-11-29T02:19:20.558Z,5.00
2023-11-29T02:24:25.854Z,5.00
2023-11-29T02:29:25.257Z,3.60
2023-11-29T02:34:29.749Z,3.30
2023-11-29T02:39:29.476Z,6.20
2023-11-29T02:44:29.106Z,4.70
2023-11-29T02:49:28.845Z,4.40
2023-11-29T02:54:28.088Z,5.70
2023-11-29T02:59:27.073Z,4.30
2023-11-29T03:04:26.506Z,3.90
2023-11-29T03:09:26.024Z,5.80
2023-11-29T03:14:27.213Z,6.20
2023-11-29T03:19:26.516Z,5.00
2023-11-29T03:24:26.333Z,5.50
2023-11-29T03:29:26.695Z,7.20
2023-11-29T03:34:26.139Z,4.40
2023-11-29T03:39:25.398Z,7.10
2023-11-29T03:44:26.911Z,8.00
2023-11-29T03:49:26.516Z,7.20
2023-11-29T03:54:27.244Z,6.60
2023-11-29T03:59:26.393Z,5.90
2023-11-29T04:04:26.932Z,6.90
2023-11-29T04:09:26.165Z,4.00
2023-11-29T04:14:26.337Z,6.30
2023-11-29T04:19:26.667Z,7.90
2023-11-29T04:24:27.688Z,6.20
2023-11-29T04:29:27.298Z,7.50
2023-11-29T04:34:33.490Z,6.70
2023-11-29T04:39:37.263Z,5.30
2023-11-29T04:44:37.598Z,8.40
2023-11-29T04:49:37.386Z,3.90
2023-11-29T04:54:37.365Z,7.90
2023-11-29T04:59:38.742Z,9.00
2023-11-29T05:04:38.942Z,6.90
2023-11-29T05:09:38.407Z,6.70
2023-11-29T05:14:38.599Z,6.00
2023-11-29T05:19:37.624Z,6.40
2023-11-29T05:24:36.765Z,4.80
2023-11-29T05:29:37.740Z,5.90
2023-11-29T05:34:37.893Z,5.10
2023-11-29T05:39:37.369Z,6.60
2023-11-29T05:44:37.360Z,6.40
2023-11-29T05:49:36.914Z,8.00
2023-11-29T05:54:36.666Z,5.20
2023-11-29T05:59:37.466Z,4.70
2023-11-29T06:04:36.895Z,7.40
2023-11-29T06:09:38.087Z,8.20
2023-11-29T06:14:38.661Z,5.70
2023-11-29T06:19:40.223Z,4.60
2023-11-29T06:24:42.077Z,5.20
2023-11-29T06:29:41.669Z,4.60
2023-11-29T06:34:41.553Z,6.90
2023-11-29T06:39:40.438Z,6.70
2023-11-29T06:44:39.680Z,5.70
2023-11-29T06:49:40.002Z,4.50
2023-11-29T06:54:39.576Z,6.20
2023-11-29T06:59:39.632Z,4.80
2023-11-29T07:04:40.654Z,3.20
2023-11-29T07:09:40.326Z,4.40
2023-11-29T07:14:40.037Z,7.20
2023-11-29T07:19:40.094Z,5.70
2023-11-29T07:24:39.634Z,7.70
2023-11-29T07:29:38.957Z,5.50
2023-11-29T07:34:39.236Z,5.10
2023-11-29T07:39:38.499Z,4.90
2023-11-29T07:44:39.938Z,5.80
2023-11-29T07:49:39.635Z,5.90
2023-11-29T07:54:39.038Z,6.10
2023-11-29T07:59:38.420Z,4.30
2023-11-29T08:04:38.135Z,6.00
2023-11-29T08:09:37.343Z,5.90
2023-11-29T08:14:37.752Z,5.10
2023-11-29T08:19:36.712Z,6.30
2023-11-29T08:24:38.209Z,3.80
2023-11-29T08:29:39.349Z,5.60
2023-11-29T08:34:41.723Z,3.70
2023-11-29T08:39:41.228Z,6.40
2023-11-29T08:44:40.345Z,7.00
2023-11-29T08:49:39.716Z,7.10
2023-11-29T08:54:39.019Z,3.80
2023-11-29T08:59:38.444Z,6.20
2023-11-29T09:04:38.235Z,3.60
2023-11-29T09:09:38.121Z,6.10
2023-11-29T09:14:37.619Z,4.60
2023-11-29T09:19:37.018Z,5.40
2023-11-29T09:24:37.070Z,5.90
2023-11-29T09:29:37.632Z,4.30
2023-11-29T09:34:38.190Z,5.70
2023-11-29T09:39:38.458Z,5.30
2023-11-29T09:44:42.170Z,5.90
2023-11-29T09:49:42.027Z,5.60
2023-11-29T09:54:42.041Z,5.40
2023-11-29T09:59:41.492Z,4.40
2023-11-29T10:04:43.852Z,6.60
2023-11-29T10:09:44.533Z,7.10
2023-11-29T10:14:51.586Z,7.40
2023-11-29T10:20:01.023Z,5.00
2023-11-29T10:25:21.168Z,5.00
2023-11-29T10:30:23.178Z,7.00
2023-11-29T10:35:27.152Z,4.20
2023-11-29T10:40:29.288Z,5.80
2023-11-29T10:45:30.889Z,3.70
2023-11-29T10:50:33.855Z,6.80
2023-11-29T10:55:40.047Z,4.70
2023-11-29T11:00:45.893Z,7.00
2023-11-29T11:05:45.633Z,5.90
2023-11-29T11:10:46.803Z,4.80
2023-11-29T11:15:50.110Z,5.60
2023-11-29T11:21:04.938Z,4.20
2023-11-29T11:26:17.144Z,5.80
2023-11-29T11:31:23.406Z,4.60
2023-11-29T11:36:30.970Z,5.70
2023-11-29T11:41:39.550Z,3.60
2023-11-29T11:46:42.722Z,4.80
2023-11-29T11:51:42.988Z,6.10
2023-11-29T11:56:46.177Z,3.60
2023-11-29T12:01:47.048Z,4.00
2023-11-29T12:06:46.837Z,4.60
2023-11-29T12:11:48.556Z,4.60
2023-11-29T12:16:59.378Z,5.10
2023-11-29T12:22:03.126Z,3.50
2023-11-29T12:27:12.560Z,4.20
2023-11-29T12:32:13.894Z,3.70
2023-11-29T12:37:15.952Z,3.40
2023-11-29T12:42:17.064Z,5.50
2023-11-29T12:47:22.207Z,4.90
2023-11-29T12:52:21.316Z,4.40
2023-11-29T12:57:23.041Z,3.10
2023-11-29T13:02:23.347Z,1.80
2023-11-29T13:07:24.698Z,2.90
2023-11-29T13:12:29.248Z,3.60
2023-11-29T13:17:29.179Z,4.00
2023-11-29T13:22:30.248Z,3.70
2023-11-29T13:27:30.450Z,3.20
2023-11-29T13:32:29.754Z,4.60
2023-11-29T13:37:29.123Z,3.70
2023-11-29T13:42:28.715Z,3.50
2023-11-29T13:47:28.743Z,4.00
2023-11-29T13:52:28.624Z,3.60
2023-11-29T13:57:28.984Z,4.40
2023-11-29T14:02:29.696Z,4.20
2023-11-29T14:07:31.309Z,4.00
2023-11-29T14:12:32.555Z,5.00
2023-11-29T14:17:32.109Z,5.10
2023-11-29T14:22:31.304Z,4.50
2023-11-29T14:27:44.277Z,3.10
2023-11-29T14:32:47.941Z,3.30
2023-11-29T14:37:48.596Z,3.60
2023-11-29T14:42:48.579Z,4.20
2023-11-29T14:47:48.815Z,4.30
2023-11-29T14:52:49.077Z,4.00
2023-11-29T14:57:49.228Z,4.00
2023-11-29T15:02:48.500Z,2.90
2023-11-29T15:07:47.882Z,4.40
2023-11-29T15:12:48.142Z,4.70
2023-11-29T15:17:48.687Z,3.50
2023-11-29T15:22:48.558Z,4.40
2023-11-29T15:27:48.717Z,5.50
2023-11-29T15:32:50.849Z,5.60
2023-11-29T15:37:53.561Z,4.10
2023-11-29T15:42:53.317Z,3.80
2023-11-29T15:47:54.338Z,4.50
2023-11-29T15:52:55.783Z,3.40
2023-11-29T15:57:55.831Z,5.00
2023-11-29T16:02:56.157Z,4.60
2023-11-29T16:07:56.314Z,4.40
2023-11-29T16:12:55.223Z,4.50
2023-11-29T16:17:55.068Z,5.00
2023-11-29T16:22:54.328Z,4.50
2023-11-29T16:27:53.755Z,2.50
2023-11-29T16:32:55.174Z,5.00
2023-11-29T16:37:54.659Z,6.00
2023-11-29T16:42:54.489Z,5.40
2023-11-29T16:47:55.436Z,4.40
2023-11-29T16:52:55.359Z,5.60
2023-11-29T16:57:55.800Z,5.40
2023-11-29T17:02:55.942Z,6.40
2023-11-29T17:07:55.786Z,6.20
2023-11-29T17:12:55.437Z,6.60
2023-11-29T17:17:54.500Z,5.30
2023-11-29T17:22:55.173Z,5.60
2023-11-29T17:27:56.311Z,4.30
2023-11-29T17:32:58.146Z,4.50
2023-11-29T17:37:57.717Z,5.00
2023-11-29T17:42:56.700Z,5.70
2023-11-29T17:47:56.567Z,5.00
2023-11-29T17:52:56.107Z,4.90
2023-11-29T17:57:55.683Z,5.00
2023-11-29T18:02:55.688Z,5.50
2023-11-29T18:07:55.557Z,4.60
2023-11-29T18:12:55.075Z,5.20
2023-11-29T18:17:55.049Z,5.00
2023-11-29T18:22:54.248Z,4.20
2023-11-29T18:27:53.991Z,5.50
2023-11-29T18:32:53.833Z,4.90
2023-11-29T18:37:53.352Z,4.50
2023-11-29T18:42:53.005Z,2.80
2023-11-29T18:47:54.958Z,5.00
2023-11-29T18:52:55.789Z,5.20
2023-11-29T18:57:56.852Z,4.70
2023-11-29T19:02:57.279Z,5.40
2023-11-29T19:07:56.843Z,4.80
2023-11-29T19:12:56.462Z,5.80
2023-11-29T19:17:57.911Z,4.90
2023-11-29T19:22:57.080Z,5.50
2023-11-29T19:27:57.245Z,6.50
2023-11-29T19:32:58.969Z,7.10
2023-11-29T19:37:59.417Z,6.40
2023-11-29T19:43:02.109Z,6.10
2023-11-29T19:48:04.043Z,6.90
2023-11-29T19:53:03.836Z,6.20
2023-11-29T19:58:04.132Z,7.30
2023-11-29T20:03:03.370Z,6.30
2023-11-29T20:08:04.165Z,6.40
2023-11-29T20:13:05.985Z,3.50
2023-11-29T20:18:07.945Z,5.50
2023-11-29T20:23:07.423Z,5.30
2023-11-29T20:28:10.351Z,5.10
2023-11-29T20:33:26.194Z,5.90
2023-11-29T20:38:26.081Z,4.00
2023-11-29T20:43:29.932Z,5.30
2023-11-29T20:49:09.473Z,5.90
2023-11-29T20:54:19.900Z,2.80
2023-11-29T20:59:21.044Z,6.60
2023-11-29T21:04:21.268Z,7.00
2023-11-29T21:09:23.637Z,7.20
2023-11-29T21:14:26.622Z,6.30
2023-11-29T21:19:29.712Z,7.60
2023-11-29T21:24:33.447Z,5.40
2023-11-29T21:29:37.548Z,8.10
2023-11-29T21:34:43.856Z,5.50
2023-11-29T21:39:44.418Z,8.10
2023-11-29T21:44:46.348Z,6.90
2023-11-29T21:49:46.996Z,6.80
2023-11-29T21:54:50.394Z,5.20
2023-11-29T21:59:55.224Z,7.70
2023-11-29T22:05:06.022Z,8.00
2023-11-29T22:10:06.858Z,7.60
2023-11-29T22:15:14.489Z,8.00
2023-11-29T22:20:18.589Z,7.10
2023-11-29T22:25:18.440Z,8.10
2023-11-29T22:30:36.258Z,8.40
2023-11-29T22:35:50.059Z,7.50
2023-11-29T22:40:56.271Z,8.50
2023-11-29T22:45:57.825Z,7.30
2023-11-29T22:50:58.284Z,8.60
2023-11-29T22:55:59.473Z,9.80
2023-11-29T23:00:58.525Z,9.40
2023-11-29T23:05:58.189Z,8.10
2023-11-29T23:10:57.925Z,9.80
2023-11-29T23:15:58.650Z,10.90
2023-11-29T23:20:58.453Z,9.40
2023-11-29T23:25:57.886Z,9.80
2023-11-29T23:30:57.188Z,11.00
2023-11-29T23:35:57.313Z,10.60
2023-11-29T23:40:57.015Z,9.40
2023-11-29T23:45:56.538Z,8.60
2023-11-29T23:50:55.345Z,9.00
2023-11-29T23:55:54.698Z,6.50
